Mtm Penang — 9V2994 — position and weather

sailwx.info

Track history (hours):
 
Tides and Currents Weather Stations Pressure Air Temp Water Temp Dewpoint Dewpoint Depression Visibility Wind Speed Wind Dir Waves Ship Positions

Mtm Penang

Last reported at 2017-Dec-18 22:29 UTC. Time now 2017-Dec-18 22:36 UTC.
Position N 51°58' E 004°02'.

Length 150 m; draft 9.7 m.

Type: Tanker. MMSI: 565871000.

Date/timePositionNaut miles runAvg speedWind from/ knotsBaromVisibWave heightAir tempDewpointWater temp
2017-Dec-18 22:29N 51°58' E 004°02'0 0.0
2017-Dec-18 21:56N 51°58' E 004°02'0 0.0
2017-Dec-18 21:26N 51°58' E 004°02'0 0.0
2017-Dec-18 20:56N 51°58' E 004°02'0 0.0
2017-Dec-18 20:29N 51°58' E 004°02'0 0.0
2017-Dec-18 19:59N 51°58' E 004°02'0 0.0
2017-Dec-18 19:26N 51°58' E 004°02'0 0.0
2017-Dec-18 18:41N 51°58' E 004°02'0 0.0
2017-Dec-18 18:17N 51°58' E 004°02'0 0.0
2017-Dec-18 17:53N 51°58' E 004°02'0 0.0
2017-Dec-18 17:29N 51°58' E 004°02'0 0.0
2017-Dec-18 16:56N 51°58' E 004°02'0 0.0
2017-Dec-18 16:26N 51°58' E 004°02'0 0.0
2017-Dec-18 15:53N 51°58' E 004°02'0 0.0
2017-Dec-18 15:26N 51°58' E 004°02'0 0.0
2017-Dec-18 14:50N 51°58' E 004°02'0 0.0
2017-Dec-18 14:29N 51°58' E 004°02'0 0.0
2017-Dec-18 13:59N 51°58' E 004°02'0 0.0
2017-Dec-18 13:23N 51°58' E 004°02'0 0.0
2017-Dec-18 12:41N 51°58' E 004°02'0 0.0
2017-Dec-18 12:29N 51°58' E 004°02'0 0.0
2017-Dec-18 11:59N 51°58' E 004°02'0 0.0
2017-Dec-18 11:26N 51°58' E 004°02'0 0.0
2017-Dec-18 10:59N 51°58' E 004°02'0 0.0
2017-Dec-18 10:23N 51°58' E 004°02'0 0.0
2017-Dec-18 09:56N 51°58' E 004°02'0 0.0
2017-Dec-18 09:26N 51°58' E 004°02'0 0.0
2017-Dec-18 08:59N 51°58' E 004°02'0 0.0
2017-Dec-18 08:29N 51°58' E 004°02'0 0.0
2017-Dec-18 07:56N 51°58' E 004°02'0 0.0
2017-Dec-18 07:29N 51°58' E 004°02'0 0.0
2017-Dec-18 06:59N 51°58' E 004°02'0 0.0
2017-Dec-18 06:29N 51°58' E 004°02'0 0.0
2017-Dec-18 05:59N 51°58' E 004°02'0 0.0
2017-Dec-18 05:29N 51°58' E 004°02'0 0.0
2017-Dec-18 04:59N 51°58' E 004°02'0 0.0
2017-Dec-18 04:29N 51°58' E 004°02'0 0.0
2017-Dec-18 03:59N 51°58' E 004°02'0 0.0
2017-Dec-18 03:17N 51°58' E 004°02'0 0.0
2017-Dec-18 02:59N 51°58' E 004°02'0 0.0
2017-Dec-18 02:29N 51°58' E 004°02'0 0.0
2017-Dec-18 01:56N 51°58' E 004°02'0 0.0
2017-Dec-18 01:29N 51°58' E 004°02'0 0.0
2017-Dec-18 00:59N 51°58' E 004°02'0 0.0
2017-Dec-18 00:29N 51°58' E 004°02'0 0.0
2017-Dec-17 23:56N 51°58' E 004°02'0 0.1
2017-Dec-17 23:31N 51°58' E 004°02'2 3.1
2017-Dec-17 23:01N 51°58' E 004°05'3 6.1
2017-Dec-17 22:31N 51°60' E 004°01'5 9.9
2017-Dec-17 22:01N 51°60' E 003°53'5 9.6
2017-Dec-17 21:31N 51°59' E 003°45'18 9.3
2017-Dec-17 19:32N 51°54' E 003°17'4812.0
2017-Dec-17 15:34N 51°28' E 002°11'114.3
2017-Dec-17 15:30N 51°28' E 002°11'713.8
2017-Dec-17 15:00N 51°21' E 002°07'713.8
2017-Dec-17 14:31N 51°14' E 002°07'714.7
2017-Dec-17 14:00N 51°11' E 001°56'714.9
2017-Dec-17 13:30N 51°07' E 001°46'815.8
2017-Dec-17 13:00N 51°02' E 001°37'815.9
2017-Dec-17 12:30N 50°56' E 001°28'1215.4
2017-Dec-17 11:44N 50°44' E 001°23'513.9
2017-Dec-17 11:24N 50°41' E 001°19'1114.6
2017-Dec-17 10:38N 50°33' E 001°05'4314.6
2017-Dec-17 07:41N 50°19' E 000°02'415.2
2017-Dec-17 07:24N 50°18' W 000°05'615.1
2017-Dec-17 07:00N 50°17' W 000°14'10211.9
2017-Dec-16 22:24N 49°50' W 002°47'1312.5
2017-Dec-16 21:21N 49°46' W 003°07'512.9
2017-Dec-16 20:56N 49°45' W 003°15'1713.0
2017-Dec-16 19:36N 49°41' W 003°41'  
Track history (hours):
 
Tides and Currents Weather Stations Pressure Air Temp Water Temp Dewpoint Dewpoint Depression Visibility Wind Speed Wind Dir Waves Ship Positions

Mtm Penang

Last reported at 2017-Dec-18 22:29 UTC. Time now 2017-Dec-18 22:36 UTC.
Position N 51°58' E 004°02'.

Length 150 m; draft 9.7 m.

Type: Tanker. MMSI: 565871000.

Date/timePositionNaut miles runAvg speedWind from/ knotsBaromVisibWave heightAir tempDewpointWater temp
2017-Dec-18 22:29N 51°58' E 004°02'0 0.0
2017-Dec-18 21:56N 51°58' E 004°02'0 0.0
2017-Dec-18 21:26N 51°58' E 004°02'0 0.0
2017-Dec-18 20:56N 51°58' E 004°02'0 0.0
2017-Dec-18 20:29N 51°58' E 004°02'0 0.0
2017-Dec-18 19:59N 51°58' E 004°02'0 0.0
2017-Dec-18 19:26N 51°58' E 004°02'0 0.0
2017-Dec-18 18:41N 51°58' E 004°02'0 0.0
2017-Dec-18 18:17N 51°58' E 004°02'0 0.0
2017-Dec-18 17:53N 51°58' E 004°02'0 0.0
2017-Dec-18 17:29N 51°58' E 004°02'0 0.0
2017-Dec-18 16:56N 51°58' E 004°02'0 0.0
2017-Dec-18 16:26N 51°58' E 004°02'0 0.0
2017-Dec-18 15:53N 51°58' E 004°02'0 0.0
2017-Dec-18 15:26N 51°58' E 004°02'0 0.0
2017-Dec-18 14:50N 51°58' E 004°02'0 0.0
2017-Dec-18 14:29N 51°58' E 004°02'0 0.0
2017-Dec-18 13:59N 51°58' E 004°02'0 0.0
2017-Dec-18 13:23N 51°58' E 004°02'0 0.0
2017-Dec-18 12:41N 51°58' E 004°02'0 0.0
2017-Dec-18 12:29N 51°58' E 004°02'0 0.0
2017-Dec-18 11:59N 51°58' E 004°02'0 0.0
2017-Dec-18 11:26N 51°58' E 004°02'0 0.0
2017-Dec-18 10:59N 51°58' E 004°02'0 0.0
2017-Dec-18 10:23N 51°58' E 004°02'0 0.0
2017-Dec-18 09:56N 51°58' E 004°02'0 0.0
2017-Dec-18 09:26N 51°58' E 004°02'0 0.0
2017-Dec-18 08:59N 51°58' E 004°02'0 0.0
2017-Dec-18 08:29N 51°58' E 004°02'0 0.0
2017-Dec-18 07:56N 51°58' E 004°02'0 0.0
2017-Dec-18 07:29N 51°58' E 004°02'0 0.0
2017-Dec-18 06:59N 51°58' E 004°02'0 0.0
2017-Dec-18 06:29N 51°58' E 004°02'0 0.0
2017-Dec-18 05:59N 51°58' E 004°02'0 0.0
2017-Dec-18 05:29N 51°58' E 004°02'0 0.0
2017-Dec-18 04:59N 51°58' E 004°02'0 0.0
2017-Dec-18 04:29N 51°58' E 004°02'0 0.0
2017-Dec-18 03:59N 51°58' E 004°02'0 0.0
2017-Dec-18 03:17N 51°58' E 004°02'0 0.0
2017-Dec-18 02:59N 51°58' E 004°02'0 0.0
2017-Dec-18 02:29N 51°58' E 004°02'0 0.0
2017-Dec-18 01:56N 51°58' E 004°02'0 0.0
2017-Dec-18 01:29N 51°58' E 004°02'0 0.0
2017-Dec-18 00:59N 51°58' E 004°02'0 0.0
2017-Dec-18 00:29N 51°58' E 004°02'0 0.0
2017-Dec-17 23:56N 51°58' E 004°02'0 0.1
2017-Dec-17 23:31N 51°58' E 004°02'2 3.1
2017-Dec-17 23:01N 51°58' E 004°05'3 6.1
2017-Dec-17 22:31N 51°60' E 004°01'5 9.9
2017-Dec-17 22:01N 51°60' E 003°53'5 9.6
2017-Dec-17 21:31N 51°59' E 003°45'18 9.3
2017-Dec-17 19:32N 51°54' E 003°17'4812.0
2017-Dec-17 15:34N 51°28' E 002°11'114.3
2017-Dec-17 15:30N 51°28' E 002°11'713.8
2017-Dec-17 15:00N 51°21' E 002°07'713.8
2017-Dec-17 14:31N 51°14' E 002°07'714.7
2017-Dec-17 14:00N 51°11' E 001°56'714.9
2017-Dec-17 13:30N 51°07' E 001°46'815.8
2017-Dec-17 13:00N 51°02' E 001°37'815.9
2017-Dec-17 12:30N 50°56' E 001°28'1215.4
2017-Dec-17 11:44N 50°44' E 001°23'513.9
2017-Dec-17 11:24N 50°41' E 001°19'1114.6
2017-Dec-17 10:38N 50°33' E 001°05'4314.6
2017-Dec-17 07:41N 50°19' E 000°02'415.2
2017-Dec-17 07:24N 50°18' W 000°05'615.1
2017-Dec-17 07:00N 50°17' W 000°14'10211.9
2017-Dec-16 22:24N 49°50' W 002°47'1312.5
2017-Dec-16 21:21N 49°46' W 003°07'512.9
2017-Dec-16 20:56N 49°45' W 003°15'1713.0
2017-Dec-16 19:36N 49°41' W 003°41'  

Dump ship's entire track history